createdAt,value
2023-10-02T00:00:07.225Z,72.40
2023-10-02T00:03:41.480Z,73.34
2023-10-02T00:06:46.246Z,72.86
2023-10-02T00:09:51.844Z,72.69
2023-10-02T00:13:00.825Z,73.33
2023-10-02T00:16:05.864Z,72.07
2023-10-02T00:19:23.380Z,73.21
2023-10-02T00:22:43.225Z,72.78
2023-10-02T00:25:56.675Z,72.35
2023-10-02T00:29:00.914Z,72.82
2023-10-02T00:32:12.557Z,72.51
2023-10-02T00:35:17.948Z,72.21
2023-10-02T00:38:21.821Z,72.37
2023-10-02T00:41:25.842Z,73.16
2023-10-02T00:44:49.016Z,73.28
2023-10-02T00:47:54.958Z,72.84
2023-10-02T00:51:06.965Z,73.05
2023-10-02T00:54:25.082Z,73.24
2023-10-02T00:57:29.450Z,72.74
2023-10-02T01:00:38.476Z,73.31
2023-10-02T01:03:56.652Z,73.17
2023-10-02T01:07:13.469Z,72.57
2023-10-02T01:10:20.675Z,72.60
2023-10-02T01:13:29.110Z,73.18
2023-10-02T01:16:37.838Z,72.87
2023-10-02T01:19:56.827Z,73.32
2023-10-02T01:23:24.342Z,73.25
2023-10-02T01:26:30.076Z,73.28
2023-10-02T01:29:36.273Z,73.15
2023-10-02T01:33:08.778Z,74.49
2023-10-02T01:36:13.220Z,73.87
2023-10-02T01:39:17.225Z,72.90
2023-10-02T01:42:22.479Z,73.70
2023-10-02T01:45:35.964Z,73.50
2023-10-02T01:48:42.341Z,74.59
2023-10-02T01:51:51.724Z,73.50
2023-10-02T01:54:55.897Z,74.05
2023-10-02T01:58:18.745Z,75.14
2023-10-02T02:01:24.220Z,74.77
2023-10-02T02:04:30.007Z,74.42
2023-10-02T02:07:36.594Z,74.71
2023-10-02T02:10:41.303Z,74.04
2023-10-02T02:13:50.865Z,75.13
2023-10-02T02:16:54.896Z,74.15
2023-10-02T02:20:11.700Z,74.36
2023-10-02T02:23:17.183Z,74.38
2023-10-02T02:26:24.484Z,74.37
2023-10-02T02:29:30.108Z,73.85
2023-10-02T02:32:45.944Z,74.03
2023-10-02T02:35:50.319Z,73.95
2023-10-02T02:39:16.563Z,73.32
2023-10-02T02:42:23.797Z,73.22
2023-10-02T02:45:32.110Z,74.36
2023-10-02T02:48:45.487Z,74.00
2023-10-02T02:51:49.758Z,73.81
2023-10-02T02:55:00.309Z,74.30
2023-10-02T02:58:04.722Z,74.19
2023-10-02T03:01:16.460Z,74.95
2023-10-02T03:04:20.350Z,73.91
2023-10-02T03:07:31.755Z,74.46
2023-10-02T03:10:38.180Z,74.45
2023-10-02T03:13:42.189Z,74.34
2023-10-02T03:16:47.638Z,74.20
2023-10-02T03:19:52.224Z,74.74
2023-10-02T03:22:58.547Z,73.99
2023-10-02T03:26:09.132Z,74.54
2023-10-02T03:29:17.987Z,74.21
2023-10-02T03:32:24.702Z,75.32
2023-10-02T03:35:28.526Z,74.59
2023-10-02T03:38:34.599Z,74.50
2023-10-02T03:41:50.136Z,75.29
2023-10-02T03:44:55.866Z,75.25
2023-10-02T03:48:04.090Z,75.82
2023-10-02T03:51:09.198Z,75.96
2023-10-02T03:54:21.549Z,75.17
2023-10-02T03:57:50.537Z,75.16
2023-10-02T04:00:55.332Z,74.96
2023-10-02T04:04:20.422Z,75.59
2023-10-02T04:07:26.716Z,75.55
2023-10-02T04:10:50.652Z,75.87
2023-10-02T04:13:57.595Z,75.40
2023-10-02T04:17:12.346Z,76.04
2023-10-02T04:20:28.536Z,75.62
2023-10-02T04:23:39.595Z,75.63
2023-10-02T04:26:55.022Z,75.97
2023-10-02T04:30:21.955Z,76.65
2023-10-02T04:33:25.832Z,76.52
2023-10-02T04:36:36.210Z,75.72
2023-10-02T04:40:14.413Z,76.18
2023-10-02T04:43:23.618Z,75.65
2023-10-02T04:46:29.785Z,75.55
2023-10-02T04:49:33.474Z,75.21
2023-10-02T04:52:59.422Z,76.04
2023-10-02T04:56:15.270Z,75.36
2023-10-02T04:59:19.222Z,76.27
2023-10-02T05:02:25.902Z,75.74
2023-10-02T05:05:35.637Z,75.05
2023-10-02T05:08:42.804Z,75.20
2023-10-02T05:11:51.970Z,75.08
2023-10-02T05:14:56.341Z,75.17
2023-10-02T05:18:00.268Z,74.62
2023-10-02T05:21:03.011Z,74.30
2023-10-02T05:24:13.332Z,74.21
2023-10-02T05:27:28.867Z,74.21
2023-10-02T05:30:43.234Z,75.00
2023-10-02T05:33:49.977Z,74.27
2023-10-02T05:37:13.189Z,73.65
2023-10-02T05:40:39.871Z,74.25
2023-10-02T05:43:56.735Z,73.50
2023-10-02T05:47:06.900Z,73.83
2023-10-02T05:50:12.304Z,74.18
2023-10-02T05:53:17.240Z,73.43
2023-10-02T05:56:22.602Z,73.59
2023-10-02T05:59:26.847Z,73.20
2023-10-02T06:02:32.838Z,73.76
2023-10-02T06:05:43.716Z,73.42
2023-10-02T06:08:56.108Z,73.31
2023-10-02T06:12:07.195Z,72.80
2023-10-02T06:15:32.299Z,72.93
2023-10-02T06:18:39.689Z,72.84
2023-10-02T06:21:54.891Z,73.00
2023-10-02T06:24:58.873Z,72.68
2023-10-02T06:28:18.166Z,72.48
2023-10-02T06:31:32.532Z,72.44
2023-10-02T06:34:41.367Z,72.21
2023-10-02T06:37:47.320Z,72.31
2023-10-02T06:40:57.891Z,72.67
2023-10-02T06:44:16.558Z,72.68
2023-10-02T06:47:23.050Z,72.52
2023-10-02T06:50:32.204Z,72.32
2023-10-02T06:53:36.445Z,72.04
2023-10-02T06:56:44.106Z,72.11
2023-10-02T06:59:53.625Z,72.20
2023-10-02T07:02:59.475Z,72.01
2023-10-02T07:06:08.911Z,71.96
2023-10-02T07:09:13.480Z,71.48
2023-10-02T07:12:17.749Z,71.25
2023-10-02T07:15:23.678Z,71.27
2023-10-02T07:18:38.187Z,70.96
2023-10-02T07:21:42.428Z,70.61
2023-10-02T07:24:50.597Z,70.38
2023-10-02T07:27:58.433Z,70.65
2023-10-02T07:31:04.780Z,70.23
2023-10-02T07:34:09.371Z,70.34
2023-10-02T07:37:14.827Z,69.85
2023-10-02T07:40:20.799Z,70.11
2023-10-02T07:43:25.220Z,69.72
2023-10-02T07:46:30.655Z,70.01
2023-10-02T07:49:35.668Z,69.15
2023-10-02T07:52:40.328Z,69.07
2023-10-02T07:55:48.403Z,68.56
2023-10-02T07:58:56.714Z,68.01
2023-10-02T08:02:21.991Z,67.92
2023-10-02T08:05:26.974Z,67.33
2023-10-02T08:08:34.418Z,66.70
2023-10-02T08:11:39.784Z,66.33
2023-10-02T08:14:44.294Z,66.38
2023-10-02T08:18:15.828Z,66.02
2023-10-02T08:21:24.788Z,66.15
2023-10-02T08:24:28.754Z,65.93
2023-10-02T08:27:33.464Z,65.70
2023-10-02T08:30:40.400Z,65.19
2023-10-02T08:34:00.709Z,65.62
2023-10-02T08:37:09.926Z,65.42
2023-10-02T08:40:16.092Z,65.21
2023-10-02T08:43:24.054Z,64.73
2023-10-02T08:46:27.939Z,64.33
2023-10-02T08:49:32.926Z,64.09
2023-10-02T08:52:42.990Z,63.96
2023-10-02T08:55:56.090Z,63.41
2023-10-02T08:59:27.784Z,63.55
2023-10-02T09:02:32.284Z,63.46
2023-10-02T09:05:38.080Z,62.93
2023-10-02T09:09:03.614Z,62.92
2023-10-02T09:12:16.341Z,62.64
2023-10-02T09:15:34.038Z,63.05
2023-10-02T09:19:00.213Z,62.49
2023-10-02T09:22:08.918Z,62.28
2023-10-02T09:25:17.073Z,62.11
2023-10-02T09:28:41.991Z,62.02
2023-10-02T09:31:48.381Z,62.32
2023-10-02T09:35:35.226Z,62.17
2023-10-02T09:38:38.538Z,61.91
2023-10-02T09:41:44.002Z,61.68
2023-10-02T09:44:51.351Z,61.80
2023-10-02T09:51:07.837Z,60.82
2023-10-02T09:54:29.731Z,60.67
2023-10-02T09:57:39.602Z,60.19
2023-10-02T10:01:35.957Z,60.14
2023-10-02T10:05:20.777Z,59.41
2023-10-02T10:08:30.378Z,59.33
2023-10-02T10:11:35.375Z,59.29
2023-10-02T10:14:40.124Z,59.08
2023-10-02T10:18:02.849Z,58.81
2023-10-02T10:21:57.948Z,57.74
2023-10-02T10:25:18.091Z,57.36
2023-10-02T10:28:31.209Z,57.39
2023-10-02T10:31:34.709Z,57.61
2023-10-02T10:35:14.501Z,57.05
2023-10-02T10:38:38.290Z,56.36
2023-10-02T10:41:55.405Z,56.59
2023-10-02T10:45:11.181Z,55.98
2023-10-02T10:48:23.719Z,55.95
2023-10-02T10:51:34.773Z,55.87
2023-10-02T10:54:57.826Z,55.85
2023-10-02T11:01:14.918Z,55.93
2023-10-02T11:04:27.942Z,55.75
2023-10-02T11:07:38.607Z,55.48
2023-10-02T11:10:42.909Z,55.59
2023-10-02T11:13:55.322Z,55.48
2023-10-02T11:17:03.148Z,54.78
2023-10-02T11:20:08.874Z,54.80
2023-10-02T11:23:13.370Z,54.48
2023-10-02T11:26:17.265Z,54.44
2023-10-02T11:29:23.274Z,53.98
2023-10-02T11:32:55.815Z,53.74
2023-10-02T11:36:15.319Z,53.58
2023-10-02T11:39:21.195Z,53.16
2023-10-02T11:42:25.421Z,53.25
2023-10-02T11:45:29.590Z,53.35
2023-10-02T11:48:35.207Z,52.74
2023-10-02T11:51:38.975Z,52.73
2023-10-02T11:54:42.990Z,52.84
2023-10-02T11:57:50.951Z,53.18
2023-10-02T12:00:55.036Z,52.89
2023-10-02T12:04:00.119Z,53.06
2023-10-02T12:07:05.433Z,53.12
2023-10-02T12:10:09.874Z,53.28
2023-10-02T12:13:14.411Z,53.42
2023-10-02T12:16:18.772Z,53.66
2023-10-02T12:19:25.525Z,53.85
2023-10-02T12:22:29.442Z,53.24
2023-10-02T12:25:33.452Z,52.64
2023-10-02T12:28:37.747Z,51.98
2023-10-02T12:31:41.837Z,52.02
2023-10-02T12:34:46.747Z,51.46
2023-10-02T12:37:51.611Z,50.40
2023-10-02T12:40:55.355Z,47.50
2023-10-02T12:43:59.842Z,48.05
2023-10-02T12:47:03.909Z,49.09
2023-10-02T12:50:12.437Z,49.82
2023-10-02T12:53:16.663Z,50.23
2023-10-02T12:56:23.242Z,50.27
2023-10-02T12:59:26.854Z,50.50
2023-10-02T13:02:30.886Z,50.54
2023-10-02T13:05:36.954Z,50.98
2023-10-02T13:08:43.540Z,51.32
2023-10-02T13:11:48.533Z,51.34
2023-10-02T13:14:55.642Z,51.32
2023-10-02T13:18:02.714Z,51.46
2023-10-02T13:21:10.072Z,51.70
2023-10-02T13:24:17.293Z,52.02
2023-10-02T13:27:22.955Z,52.64
2023-10-02T13:30:31.620Z,53.05
2023-10-02T13:33:35.989Z,53.31
2023-10-02T13:36:41.894Z,53.45
2023-10-02T13:39:46.492Z,53.56
2023-10-02T13:42:50.822Z,53.60
2023-10-02T13:45:55.039Z,53.98
2023-10-02T13:48:59.819Z,53.91
2023-10-02T13:52:05.937Z,53.66
2023-10-02T13:55:23.656Z,53.43
2023-10-02T13:58:29.588Z,53.83
2023-10-02T14:01:35.139Z,53.55
2023-10-02T14:04:39.398Z,53.87
2023-10-02T14:07:45.020Z,54.26
2023-10-02T14:10:49.109Z,54.57
2023-10-02T14:13:55.345Z,54.84
2023-10-02T14:16:59.834Z,55.13
2023-10-02T14:20:03.581Z,55.25
2023-10-02T14:23:09.012Z,55.44
2023-10-02T14:26:13.010Z,55.43
2023-10-02T14:29:17.306Z,54.75
2023-10-02T14:32:21.526Z,54.20
2023-10-02T14:35:42.977Z,53.82
2023-10-02T14:38:59.536Z,53.63
2023-10-02T14:42:05.530Z,53.40
2023-10-02T14:45:10.971Z,53.19
2023-10-02T14:48:32.191Z,52.87
2023-10-02T14:51:42.428Z,53.08
2023-10-02T14:54:48.518Z,53.82
2023-10-02T14:57:52.063Z,54.27
2023-10-02T15:00:56.404Z,54.73
2023-10-02T15:04:00.152Z,55.17
2023-10-02T15:07:06.541Z,55.57
2023-10-02T15:10:13.034Z,55.99
2023-10-02T15:13:18.462Z,56.36
2023-10-02T15:16:22.306Z,57.14
2023-10-02T15:19:26.614Z,57.08
2023-10-02T15:22:34.391Z,57.23
2023-10-02T15:25:41.679Z,57.56
2023-10-02T15:28:45.522Z,57.64
2023-10-02T15:31:50.279Z,57.60
2023-10-02T15:34:53.953Z,57.92
2023-10-02T15:38:03.247Z,58.09
2023-10-02T15:41:28.128Z,58.50
2023-10-02T15:44:32.667Z,58.61
2023-10-02T15:47:36.546Z,59.00
2023-10-02T15:50:41.761Z,59.48
2023-10-02T15:53:47.063Z,59.53
2023-10-02T15:56:53.910Z,60.00
2023-10-02T15:59:57.779Z,60.24
2023-10-02T16:03:03.333Z,60.42
2023-10-02T16:06:10.254Z,60.92
2023-10-02T16:09:14.502Z,60.90
2023-10-02T16:12:19.593Z,61.46
2023-10-02T16:15:26.739Z,61.81
2023-10-02T16:18:30.737Z,62.28
2023-10-02T16:21:35.076Z,62.90
2023-10-02T16:24:38.593Z,63.13
2023-10-02T16:27:46.010Z,63.76
2023-10-02T16:30:51.654Z,63.99
2023-10-02T16:33:56.011Z,64.66
2023-10-02T16:37:00.159Z,64.87
2023-10-02T16:40:06.064Z,65.18
2023-10-02T16:43:13.023Z,65.77
2023-10-02T16:46:19.170Z,65.73
2023-10-02T16:49:22.764Z,66.06
2023-10-02T16:52:26.746Z,66.94
2023-10-02T16:55:31.455Z,66.99
2023-10-02T16:58:38.067Z,67.24
2023-10-02T17:01:42.376Z,67.38
2023-10-02T17:04:47.165Z,67.76
2023-10-02T17:07:52.025Z,67.74
2023-10-02T17:10:56.228Z,67.83
2023-10-02T17:14:01.300Z,68.71
2023-10-02T17:17:05.503Z,68.68
2023-10-02T17:20:15.136Z,68.93
2023-10-02T17:23:19.581Z,69.35
2023-10-02T17:26:23.874Z,69.32
2023-10-02T17:29:30.085Z,69.98
2023-10-02T17:32:34.032Z,69.77
2023-10-02T17:35:38.794Z,70.38
2023-10-02T17:38:43.038Z,70.66
2023-10-02T17:41:47.082Z,71.02
2023-10-02T17:44:52.029Z,70.63
2023-10-02T17:47:57.520Z,71.04
2023-10-02T17:51:01.232Z,71.59
2023-10-02T17:54:05.807Z,71.70
2023-10-02T17:57:10.552Z,71.62
2023-10-02T18:00:19.110Z,72.58
2023-10-02T18:03:23.045Z,72.38
2023-10-02T18:06:27.651Z,72.60
2023-10-02T18:09:31.138Z,72.61
2023-10-02T18:12:36.295Z,72.84
2023-10-02T18:15:41.474Z,73.10
2023-10-02T18:18:45.992Z,73.34
2023-10-02T18:21:49.638Z,73.42
2023-10-02T18:24:53.783Z,73.24
2023-10-02T18:28:00.905Z,73.44
2023-10-02T18:31:06.361Z,73.63
2023-10-02T18:34:10.889Z,73.23
2023-10-02T18:37:14.948Z,73.31
2023-10-02T18:40:19.156Z,73.49
2023-10-02T18:43:23.021Z,73.62
2023-10-02T18:46:27.927Z,74.16
2023-10-02T18:49:34.642Z,74.45
2023-10-02T18:52:40.933Z,74.29
2023-10-02T18:55:45.149Z,74.53
2023-10-02T18:58:49.759Z,74.67
2023-10-02T19:01:55.310Z,74.58
2023-10-02T19:05:00.375Z,74.73
2023-10-02T19:08:05.894Z,74.55
2023-10-02T19:11:16.541Z,75.56
2023-10-02T19:14:23.139Z,74.87
2023-10-02T19:17:28.534Z,75.33
2023-10-02T19:20:32.729Z,75.18
2023-10-02T19:23:37.084Z,75.33
2023-10-02T19:26:42.049Z,75.42
2023-10-02T19:29:46.477Z,75.49
2023-10-02T19:32:51.862Z,75.77
2023-10-02T19:35:55.751Z,75.70
2023-10-02T19:38:59.845Z,75.71
2023-10-02T19:42:04.947Z,76.05
2023-10-02T19:45:10.375Z,76.06
2023-10-02T19:48:15.598Z,76.16
2023-10-02T19:51:19.884Z,75.96
2023-10-02T19:54:23.868Z,75.93
2023-10-02T19:57:27.748Z,76.03
2023-10-02T20:00:31.231Z,75.87
2023-10-02T20:03:36.969Z,75.94
2023-10-02T20:06:41.424Z,76.05
2023-10-02T20:09:46.150Z,76.21
2023-10-02T20:12:50.248Z,76.24
2023-10-02T20:15:54.576Z,76.12
2023-10-02T20:18:59.971Z,76.31
2023-10-02T20:22:05.007Z,76.38
2023-10-02T20:25:10.488Z,76.58
2023-10-02T20:28:15.281Z,76.70
2023-10-02T20:31:19.264Z,76.71
2023-10-02T20:34:36.519Z,76.71
2023-10-02T20:37:42.611Z,76.85
2023-10-02T20:40:47.171Z,76.85
2023-10-02T20:43:51.897Z,76.56
2023-10-02T20:47:11.526Z,76.73
2023-10-02T20:50:20.442Z,76.40
2023-10-02T20:53:24.674Z,76.66
2023-10-02T20:56:29.424Z,76.39
2023-10-02T20:59:33.663Z,76.62
2023-10-02T21:02:37.486Z,76.59
2023-10-02T21:05:44.365Z,76.89
2023-10-02T21:08:49.471Z,76.87
2023-10-02T21:11:55.308Z,76.98
2023-10-02T21:14:58.967Z,76.90
2023-10-02T21:18:03.785Z,77.14
2023-10-02T21:21:08.877Z,77.18
2023-10-02T21:24:12.781Z,77.00
2023-10-02T21:27:16.653Z,76.99
2023-10-02T21:30:21.416Z,77.17
2023-10-02T21:33:25.540Z,77.20
2023-10-02T21:36:30.928Z,77.31
2023-10-02T21:39:35.247Z,77.20
2023-10-02T21:42:39.316Z,76.90
2023-10-02T21:45:44.206Z,77.18
2023-10-02T21:48:48.974Z,77.13
2023-10-02T21:51:54.212Z,77.00
2023-10-02T21:55:04.953Z,77.09
2023-10-02T21:58:08.740Z,77.11
2023-10-02T22:01:12.948Z,77.27
2023-10-02T22:04:17.364Z,77.43
2023-10-02T22:07:22.956Z,77.58
2023-10-02T22:10:26.720Z,77.50
2023-10-02T22:13:30.857Z,77.40
2023-10-02T22:16:39.361Z,77.98
2023-10-02T22:19:44.290Z,77.54
2023-10-02T22:22:51.182Z,77.87
2023-10-02T22:25:56.653Z,78.32
2023-10-02T22:29:00.964Z,77.95
2023-10-02T22:32:05.688Z,78.29
2023-10-02T22:35:12.091Z,77.96
2023-10-02T22:38:17.958Z,78.19
2023-10-02T22:41:21.629Z,78.30
2023-10-02T22:44:25.807Z,77.82
2023-10-02T22:47:31.542Z,78.04
2023-10-02T22:50:35.756Z,78.25
2023-10-02T22:53:40.941Z,78.27
2023-10-02T22:56:45.782Z,78.08
2023-10-02T22:59:49.656Z,78.71
2023-10-02T23:02:56.819Z,78.35
2023-10-02T23:06:00.446Z,77.93
2023-10-02T23:09:06.404Z,78.38
2023-10-02T23:12:10.008Z,78.77
2023-10-02T23:15:16.141Z,78.79
2023-10-02T23:18:19.914Z,78.28
2023-10-02T23:21:23.916Z,78.42
2023-10-02T23:24:28.882Z,78.39
2023-10-02T23:27:33.881Z,78.23
2023-10-02T23:30:39.159Z,78.02
2023-10-02T23:33:43.523Z,78.48
2023-10-02T23:36:48.778Z,78.01
2023-10-02T23:39:54.446Z,78.68
2023-10-02T23:43:01.398Z,78.68
2023-10-02T23:46:05.969Z,78.54
2023-10-02T23:49:14.862Z,78.38
2023-10-02T23:52:19.815Z,78.91
2023-10-02T23:55:25.717Z,78.82
2023-10-02T23:58:30.121Z,78.97
